Time;durP1;ratioP1;P1;durP2;ratioP2;P2;SDS_P1;SDS_P2;PMS_P1;PMS_P2;Temp;Humidity;BMP_temperature;BMP_pressure;BME280_temperature;BME280_humidity;BME280_pressure;Samples;Min_cycle;Max_cycle;Signal;HPM_P1;HPM_P2
2022/12/05 00:03:59;;;;;;;;;;;;;;;1.23;100.00;95355.63;10508631;28;3323;-70
2022/12/05 00:09:02;;;;;;;;;;;;;;;0.82;100.00;95352.66;10507262;28;3296;-76
2022/12/05 00:14:05;;;;;;;;;;;;;;;0.98;100.00;95377.72;10508614;28;2844;-73
2022/12/05 00:19:09;;;;;;;;;;;;;;;1.24;100.00;95365.16;10510314;28;3317;-73
2022/12/05 00:24:12;;;;;;;;;;;;;;;1.40;100.00;95369.84;10504079;28;3264;-74
2022/12/05 00:29:15;;;;;;;;;;;;;;;1.43;100.00;95381.81;10507879;28;3327;-69
2022/12/05 00:34:19;;;;;;;;;;;;;;;1.46;100.00;95389.28;10510087;28;3351;-69
2022/12/05 00:39:23;;;;;;;;;;;;;;;1.51;100.00;95395.53;10521524;28;3371;-70
2022/12/05 00:44:27;;;;;;;;;;;;;;;1.45;100.00;95388.50;10519736;28;3307;-69
2022/12/05 00:49:31;;;;;;;;;;;;;;;1.41;100.00;95397.94;10506671;28;3509;-69
2022/12/05 00:54:34;;;;;;;;;;;;;;;1.40;100.00;95396.31;10522850;28;3471;-69
2022/12/05 00:59:37;;;;;;;;;;;;;;;1.37;100.00;95407.34;10514798;28;3311;-69
2022/12/05 01:04:40;;;;;;;;;;;;;;;1.24;100.00;95410.19;10516634;28;3314;-68
2022/12/05 01:09:43;;;;;;;;;;;;;;;1.30;100.00;95406.63;10518136;28;3198;-76
2022/12/05 01:14:47;;;;;;;;;;;;;;;1.40;100.00;95421.97;10513765;28;3376;-77
2022/12/05 01:19:51;;;;;;;;;;;;;;;1.41;100.00;95440.31;10503434;28;3237;-69
2022/12/05 01:24:54;;;;;;;;;;;;;;;1.39;100.00;95455.59;10508709;28;3361;-68
2022/12/05 01:29:57;;;;;;;;;;;;;;;1.31;100.00;95462.03;10511371;28;3131;-68
2022/12/05 01:35:01;;;;;;;;;;;;;;;1.24;100.00;95461.28;10508705;28;3305;-69
2022/12/05 01:40:05;;;;;;;;;;;;;;;1.22;100.00;95439.53;10505105;28;2866;-66
2022/12/05 01:45:08;;;;;;;;;;;;;;;1.17;100.00;95449.19;10505832;28;2785;-69
2022/12/05 01:50:11;;;;;;;;;;;;;;;1.20;100.00;95456.66;10519191;28;2883;-69
2022/12/05 01:55:14;;;;;;;;;;;;;;;1.18;100.00;95478.06;10514775;28;3305;-68
2022/12/05 02:00:17;;;;;;;;;;;;;;;1.28;100.00;95486.31;10506453;28;2824;-70
2022/12/05 02:05:20;;;;;;;;;;;;;;;1.25;100.00;95484.09;10510778;28;3284;-68
2022/12/05 02:10:23;;;;;;;;;;;;;;;1.13;100.00;95490.34;10519918;28;3249;-68
2022/12/05 02:15:27;;;;;;;;;;;;;;;0.98;100.00;95520.66;10501357;28;3467;-70
2022/12/05 02:20:30;;;;;;;;;;;;;;;1.02;100.00;95526.31;10508542;28;2895;-67
2022/12/05 02:25:33;;;;;;;;;;;;;;;0.83;100.00;95520.22;10510510;28;2879;-71
2022/12/05 02:30:36;;;;;;;;;;;;;;;0.86;100.00;95530.34;10508500;28;3385;-69
2022/12/05 02:35:39;;;;;;;;;;;;;;;0.91;100.00;95525.22;10494715;28;3461;-71
2022/12/05 02:40:43;;;;;;;;;;;;;;;0.98;100.00;95531.25;10511474;28;2883;-77
2022/12/05 02:45:46;;;;;;;;;;;;;;;1.05;100.00;95529.31;10506611;28;3278;-73
2022/12/05 02:50:53;;;;;;;;;;;;;;;0.91;100.00;95543.72;10513415;28;2968;-72
2022/12/05 02:55:56;;;;;;;;;;;;;;;0.95;100.00;95546.72;10516120;28;3334;-69
2022/12/05 03:01:00;;;;;;;;;;;;;;;0.99;100.00;95548.72;10509901;28;3287;-67
2022/12/05 03:06:03;;;;;;;;;;;;;;;1.05;100.00;95553.16;10516466;28;3305;-68
2022/12/05 03:11:07;;;;;;;;;;;;;;;0.80;100.00;95562.97;10513531;28;3437;-69
2022/12/05 03:16:11;;;;;;;;;;;;;;;0.71;100.00;95556.34;10513939;28;3409;-69
2022/12/05 03:21:14;;;;;;;;;;;;;;;0.71;100.00;95585.44;10511766;28;2871;-69
2022/12/05 03:26:19;;;;;;;;;;;;;;;0.77;100.00;95587.22;10508699;28;3286;-67
2022/12/05 03:31:23;;;;;;;;;;;;;;;0.77;100.00;95592.50;10512248;28;2878;-67
2022/12/05 03:36:26;;;;;;;;;;;;;;;0.87;100.00;95589.38;10511197;28;3298;-68
2022/12/05 03:41:29;;;;;;;;;;;;;;;0.90;100.00;95596.88;10505434;28;3259;-68
2022/12/05 03:46:35;;;;;;;;;;;;;;;1.04;100.00;95604.47;10518515;28;3302;-68
2022/12/05 03:51:38;;;;;;;;;;;;;;;1.08;100.00;95621.56;10526015;28;3290;-67
2022/12/05 03:56:42;;;;;;;;;;;;;;;1.07;100.00;95622.56;10523409;28;3304;-71
2022/12/05 04:01:45;;;;;;;;;;;;;;;1.10;100.00;95628.47;10510439;28;3278;-67
2022/12/05 04:06:48;;;;;;;;;;;;;;;0.98;100.00;95615.94;10506493;28;3275;-73
2022/12/05 04:11:51;;;;;;;;;;;;;;;0.91;100.00;95617.03;10509606;28;2895;-68
2022/12/05 04:17:05;;;;;;;;;;;;;;;0.99;100.00;95622.03;10507490;28;3711;-69
2022/12/05 04:22:08;;;;;;;;;;;;;;;1.03;100.00;95636.47;10511295;28;3346;-68
2022/12/05 04:27:11;;;;;;;;;;;;;;;1.04;100.00;95641.53;10513094;28;3306;-69
2022/12/05 04:32:14;;;;;;;;;;;;;;;1.10;100.00;95634.56;10516253;28;3351;-71
2022/12/05 04:37:18;;;;;;;;;;;;;;;1.13;100.00;95638.59;10512197;28;3290;-72
2022/12/05 04:42:21;;;;;;;;;;;;;;;1.25;100.00;95634.22;10516186;28;2935;-74
2022/12/05 04:47:24;;;;;;;;;;;;;;;1.33;100.00;95639.22;10512869;28;2883;-68
2022/12/05 04:52:27;;;;;;;;;;;;;;;1.37;100.00;95629.81;10516169;28;2867;-69
2022/12/05 04:57:31;;;;;;;;;;;;;;;1.39;100.00;95627.75;10524494;28;3334;-75
2022/12/05 05:02:34;;;;;;;;;;;;;;;1.45;100.00;95616.28;10519618;28;3319;-73
2022/12/05 05:07:37;;;;;;;;;;;;;;;1.48;100.00;95605.25;10509606;28;3338;-74
2022/12/05 05:12:40;;;;;;;;;;;;;;;1.37;100.00;95608.63;10515800;28;3355;-74
2022/12/05 05:17:44;;;;;;;;;;;;;;;1.45;100.00;95610.97;10517144;28;2827;-69
2022/12/05 05:22:47;;;;;;;;;;;;;;;1.47;100.00;95619.53;10506070;28;3352;-71
2022/12/05 05:27:50;;;;;;;;;;;;;;;1.42;100.00;95632.63;10514835;28;3425;-70
2022/12/05 05:32:54;;;;;;;;;;;;;;;1.56;100.00;95634.09;10512245;28;3255;-69
2022/12/05 05:37:57;;;;;;;;;;;;;;;1.65;100.00;95639.09;10505179;28;3446;-66
2022/12/05 05:43:00;;;;;;;;;;;;;;;1.78;100.00;95641.59;10510311;28;3314;-69
2022/12/05 05:48:03;;;;;;;;;;;;;;;1.86;100.00;95634.19;10514086;28;3327;-69
2022/12/05 05:53:06;;;;;;;;;;;;;;;1.86;100.00;95643.97;10523907;28;3276;-67
2022/12/05 05:58:09;;;;;;;;;;;;;;;1.95;100.00;95639.97;10518948;28;2878;-68
2022/12/05 06:03:12;;;;;;;;;;;;;;;2.05;100.00;95652.72;10514592;28;3501;-70
2022/12/05 06:08:16;;;;;;;;;;;;;;;2.01;100.00;95657.66;10500763;28;3299;-68
2022/12/05 06:13:20;;;;;;;;;;;;;;;2.09;100.00;95669.78;10509502;28;3701;-69
2022/12/05 06:18:23;;;;;;;;;;;;;;;2.17;100.00;95666.84;10499333;28;3259;-69
2022/12/05 06:23:26;;;;;;;;;;;;;;;2.22;100.00;95674.09;10512128;28;3288;-68
2022/12/05 06:28:30;;;;;;;;;;;;;;;2.27;100.00;95690.16;10497410;28;3402;-69
2022/12/05 06:33:33;;;;;;;;;;;;;;;2.39;100.00;95685.72;10521719;28;3514;-71
2022/12/05 06:38:36;;;;;;;;;;;;;;;2.43;100.00;95678.94;10520606;28;3339;-71
2022/12/05 06:43:44;;;;;;;;;;;;;;;2.46;100.00;95686.44;10513866;28;3363;-71
2022/12/05 06:48:47;;;;;;;;;;;;;;;2.55;100.00;95690.44;10514597;28;3263;-69
2022/12/05 06:53:50;;;;;;;;;;;;;;;2.49;100.00;95706.44;10517040;28;3369;-69
2022/12/05 06:58:54;;;;;;;;;;;;;;;2.57;100.00;95709.56;10512343;28;3458;-69
2022/12/05 07:03:57;;;;;;;;;;;;;;;2.55;100.00;95711.66;10529802;28;3314;-67
2022/12/05 07:09:01;;;;;;;;;;;;;;;2.69;100.00;95718.41;10534711;28;3311;-67
2022/12/05 07:14:04;;;;;;;;;;;;;;;2.60;100.00;95711.75;10531797;28;3425;-70
2022/12/05 07:19:21;;;;;;;;;;;;;;;2.63;100.00;95721.94;10534748;28;3291;-70
2022/12/05 07:24:24;;;;;;;;;;;;;;;2.56;100.00;95718.56;10535490;28;3283;-69
2022/12/05 07:29:27;;;;;;;;;;;;;;;2.62;100.00;95720.34;10528958;28;2852;-69
2022/12/05 07:34:30;;;;;;;;;;;;;;;2.66;100.00;95732.09;10532453;28;3325;-70
2022/12/05 07:39:33;;;;;;;;;;;;;;;2.76;100.00;95728.09;10532296;28;2897;-73
2022/12/05 07:44:37;;;;;;;;;;;;;;;2.72;100.00;95735.69;10532079;28;3267;-65
2022/12/05 07:49:40;;;;;;;;;;;;;;;2.74;100.00;95738.97;10527811;28;2890;-66
2022/12/05 07:54:43;;;;;;;;;;;;;;;2.86;100.00;95747.78;10541743;28;2952;-67
2022/12/05 07:59:47;;;;;;;;;;;;;;;2.90;100.00;95751.59;10542851;28;3039;-70
2022/12/05 08:04:50;;;;;;;;;;;;;;;2.88;100.00;95753.66;10537043;28;3376;-68
2022/12/05 08:09:53;;;;;;;;;;;;;;;3.03;100.00;95745.28;10533384;28;3403;-72
2022/12/05 08:14:56;;;;;;;;;;;;;;;3.03;100.00;95742.63;10537839;28;3343;-71
2022/12/05 08:20:00;;;;;;;;;;;;;;;3.13;100.00;95750.84;10517096;28;3335;-69
2022/12/05 08:25:03;;;;;;;;;;;;;;;3.03;100.00;95763.88;10516294;28;3030;-69
2022/12/05 08:30:06;;;;;;;;;;;;;;;3.18;100.00;95769.59;10516381;28;2657;-68
2022/12/05 08:35:10;;;;;;;;;;;;;;;3.33;100.00;95782.44;10521999;28;3038;-67
2022/12/05 08:40:13;;;;;;;;;;;;;;;3.46;100.00;95792.84;10520950;28;3174;-68
2022/12/05 08:45:16;;;;;;;;;;;;;;;3.58;100.00;95794.72;10527109;28;3039;-70
2022/12/05 08:50:19;;;;;;;;;;;;;;;3.60;100.00;95793.44;10517046;28;3155;-71
2022/12/05 08:55:24;;;;;;;;;;;;;;;3.66;100.00;95797.84;10521702;28;3041;-68
2022/12/05 09:00:28;;;;;;;;;;;;;;;3.63;100.00;95800.19;10513196;28;2523;-66
2022/12/05 09:05:31;;;;;;;;;;;;;;;3.71;100.00;95805.97;10518824;28;2982;-67
2022/12/05 09:10:34;;;;;;;;;;;;;;;3.79;100.00;95802.94;10511615;28;3383;-68
2022/12/05 09:15:38;;;;;;;;;;;;;;;3.55;100.00;95806.63;10520388;28;3000;-67
2022/12/05 09:20:41;;;;;;;;;;;;;;;3.44;100.00;95797.59;10511156;28;2666;-71
2022/12/05 09:25:44;;;;;;;;;;;;;;;3.53;100.00;95800.72;10508527;28;3034;-68
2022/12/05 09:30:47;;;;;;;;;;;;;;;3.65;100.00;95814.03;10509067;28;3109;-68
2022/12/05 09:35:50;;;;;;;;;;;;;;;3.69;100.00;95818.69;10505536;28;3081;-69
2022/12/05 09:40:53;;;;;;;;;;;;;;;3.61;100.00;95821.66;10502457;28;3817;-68
2022/12/05 09:46:01;;;;;;;;;;;;;;;3.45;100.00;95833.75;10502080;28;3049;-69
2022/12/05 09:51:04;;;;;;;;;;;;;;;3.47;100.00;95830.88;10521056;28;3030;-70
2022/12/05 09:56:08;;;;;;;;;;;;;;;3.42;100.00;95830.72;10517246;28;2598;-72
2022/12/05 10:01:11;;;;;;;;;;;;;;;3.61;100.00;95839.44;10525361;28;3039;-78
2022/12/05 10:06:14;;;;;;;;;;;;;;;3.52;100.00;95838.97;10512635;28;3029;-70
2022/12/05 10:11:17;;;;;;;;;;;;;;;3.68;100.00;95851.59;10514594;28;3044;-68
2022/12/05 10:16:21;;;;;;;;;;;;;;;3.72;100.00;95841.31;10508717;28;3034;-69
2022/12/05 10:21:24;;;;;;;;;;;;;;;3.85;100.00;95827.81;10509959;28;2586;-67
2022/12/05 10:26:27;;;;;;;;;;;;;;;4.09;100.00;95833.97;10511926;28;3180;-67
2022/12/05 10:31:31;;;;;;;;;;;;;;;4.20;100.00;95833.16;10509838;28;3030;-67
2022/12/05 10:36:34;;;;;;;;;;;;;;;4.46;100.00;95818.56;10505572;28;2958;-68
2022/12/05 10:41:37;;;;;;;;;;;;;;;4.27;100.00;95831.19;10511393;28;3057;-68
2022/12/05 10:46:40;;;;;;;;;;;;;;;4.40;100.00;95819.50;10500986;28;3050;-66
2022/12/05 10:51:43;;;;;;;;;;;;;;;4.59;100.00;95820.97;10510879;28;3081;-68
2022/12/05 10:56:48;;;;;;;;;;;;;;;4.60;100.00;95827.09;10519269;28;2973;-67
2022/12/05 11:01:51;;;;;;;;;;;;;;;4.84;100.00;95810.03;10509859;28;3042;-67
2022/12/05 11:06:54;;;;;;;;;;;;;;;5.31;100.00;95807.16;10511410;28;3094;-68
2022/12/05 11:11:57;;;;;;;;;;;;;;;5.02;100.00;95801.03;10509091;28;2983;-68
2022/12/05 11:17:01;;;;;;;;;;;;;;;4.98;100.00;95793.75;10503066;28;3099;-67
2022/12/05 11:22:06;;;;;;;;;;;;;;;5.06;100.00;95796.03;10520573;28;3004;-68
2022/12/05 11:27:09;;;;;;;;;;;;;;;5.49;100.00;95792.00;10518515;28;3049;-67
2022/12/05 11:32:14;;;;;;;;;;;;;;;5.38;100.00;95783.84;10522655;28;2571;-66
2022/12/05 11:37:17;;;;;;;;;;;;;;;5.24;100.00;95793.19;10510941;28;3005;-66
2022/12/05 11:42:21;;;;;;;;;;;;;;;5.17;100.00;95789.88;10520777;28;2945;-67
2022/12/05 11:47:24;;;;;;;;;;;;;;;5.23;100.00;95777.44;10523607;28;3135;-67
2022/12/05 11:52:27;;;;;;;;;;;;;;;5.15;100.00;95786.59;10521645;28;3061;-68
2022/12/05 11:57:30;;;;;;;;;;;;;;;5.11;100.00;95791.63;10521872;28;2606;-71
2022/12/05 12:02:33;;;;;;;;;;;;;;;5.00;100.00;95789.81;10530572;28;3097;-73
2022/12/05 12:07:37;;;;;;;;;;;;;;;4.91;100.00;95787.78;10532849;28;3055;-68
2022/12/05 12:12:40;;;;;;;;;;;;;;;5.06;100.00;95793.38;10517247;28;3018;-68
2022/12/05 12:17:43;;;;;;;;;;;;;;;5.08;100.00;95794.75;10520049;28;3058;-68
2022/12/05 12:22:46;;;;;;;;;;;;;;;5.08;100.00;95783.28;10513751;28;3051;-68
2022/12/05 12:27:50;;;;;;;;;;;;;;;5.01;100.00;95787.94;10517672;28;3122;-68
2022/12/05 12:32:53;;;;;;;;;;;;;;;4.96;100.00;95775.34;10521109;28;3033;-67
2022/12/05 12:37:56;;;;;;;;;;;;;;;4.80;100.00;95782.25;10520196;28;3068;-68
2022/12/05 12:42:59;;;;;;;;;;;;;;;4.78;100.00;95779.00;10526349;28;2989;-67
2022/12/05 12:48:02;;;;;;;;;;;;;;;4.69;100.00;95775.09;10528249;28;3085;-68
2022/12/05 12:53:06;;;;;;;;;;;;;;;4.66;100.00;95774.78;10526075;28;2955;-68
2022/12/05 12:58:09;;;;;;;;;;;;;;;4.68;100.00;95773.47;10521471;28;3034;-69
2022/12/05 13:03:13;;;;;;;;;;;;;;;4.54;100.00;95772.94;10512304;28;3171;-67
2022/12/05 13:08:16;;;;;;;;;;;;;;;4.49;100.00;95774.69;10520781;28;3037;-68
2022/12/05 13:13:19;;;;;;;;;;;;;;;4.44;100.00;95783.38;10521058;28;3002;-69
2022/12/05 13:18:23;;;;;;;;;;;;;;;4.40;100.00;95784.09;10536680;27;3048;-70
2022/12/05 13:23:26;;;;;;;;;;;;;;;4.40;100.00;95776.91;10520371;28;3046;-70
2022/12/05 13:28:30;;;;;;;;;;;;;;;4.32;100.00;95774.59;10521663;28;3163;-70
2022/12/05 13:33:33;;;;;;;;;;;;;;;4.25;100.00;95769.41;10519580;28;2879;-70
2022/12/05 13:43:57;;;;;;;;;;;;;;;4.16;100.00;95784.09;10508791;28;3042;-68
2022/12/05 13:49:09;;;;;;;;;;;;;;;4.12;100.00;95784.81;10496003;28;2586;-68
2022/12/05 13:54:19;;;;;;;;;;;;;;;4.16;100.00;95780.66;10520359;28;3046;-68
2022/12/05 13:59:22;;;;;;;;;;;;;;;4.03;100.00;95784.34;10514230;28;3122;-68
2022/12/05 14:04:25;;;;;;;;;;;;;;;4.00;100.00;95771.50;10502770;28;3017;-70
2022/12/05 14:09:28;;;;;;;;;;;;;;;3.91;100.00;95795.00;10501646;28;3001;-75
2022/12/05 14:14:32;;;;;;;;;;;;;;;3.71;100.00;95783.88;10501912;28;3017;-70
2022/12/05 14:19:35;;;;;;;;;;;;;;;3.80;100.00;95777.97;10507549;28;2995;-73
2022/12/05 14:24:38;;;;;;;;;;;;;;;3.74;100.00;95786.06;10503608;28;3030;-71
2022/12/05 14:29:42;;;;;;;;;;;;;;;3.84;100.00;95804.13;10500390;28;2977;-70
2022/12/05 14:34:45;;;;;;;;;;;;;;;3.97;100.00;95804.69;10518257;28;2994;-67
2022/12/05 14:39:50;;;;;;;;;;;;;;;3.84;100.00;95804.13;10516034;28;2556;-69
2022/12/05 14:44:53;;;;;;;;;;;;;;;3.76;100.00;95822.03;10519897;28;3113;-69
2022/12/05 14:50:00;;;;;;;;;;;;;;;3.66;100.00;95824.44;10517378;28;3058;-69
2022/12/05 14:55:04;;;;;;;;;;;;;;;3.68;100.00;95821.53;10527480;28;2547;-68
2022/12/05 15:00:08;;;;;;;;;;;;;;;3.57;100.00;95812.53;10523170;28;2571;-71
2022/12/05 15:05:11;;;;;;;;;;;;;;;3.53;100.00;95804.19;10524957;28;3049;-69
2022/12/05 15:10:14;;;;;;;;;;;;;;;3.58;100.00;95805.38;10527659;28;3106;-70
2022/12/05 15:15:18;;;;;;;;;;;;;;;3.39;100.00;95807.28;10526300;28;3003;-69
2022/12/05 15:20:22;;;;;;;;;;;;;;;3.39;100.00;95801.97;10531126;28;3284;-70
2022/12/05 15:25:27;;;;;;;;;;;;;;;3.38;100.00;95811.78;10526629;28;3169;-70
2022/12/05 15:30:33;;;;;;;;;;;;;;;3.24;100.00;95813.84;10522665;28;2987;-70
2022/12/05 15:35:36;;;;;;;;;;;;;;;3.31;100.00;95820.88;10528089;28;2993;-69
2022/12/05 15:40:39;;;;;;;;;;;;;;;3.30;100.00;95817.41;10509379;28;3120;-70
2022/12/05 15:45:42;;;;;;;;;;;;;;;3.37;100.00;95831.44;10524080;28;3067;-69
2022/12/05 15:50:46;;;;;;;;;;;;;;;3.32;100.00;95827.84;10520266;28;3097;-73
2022/12/05 15:55:51;;;;;;;;;;;;;;;3.28;100.00;95842.59;10529240;28;3136;-73
2022/12/05 16:00:54;;;;;;;;;;;;;;;3.24;100.00;95840.41;10531354;28;3204;-70
2022/12/05 16:05:58;;;;;;;;;;;;;;;3.25;100.00;95839.38;10509838;28;2723;-68
2022/12/05 16:11:01;;;;;;;;;;;;;;;3.20;100.00;95836.56;10504145;28;3113;-68
2022/12/05 16:16:04;;;;;;;;;;;;;;;3.11;100.00;95845.88;10518116;28;3070;-68
2022/12/05 16:21:07;;;;;;;;;;;;;;;3.06;100.00;95845.75;10508368;28;3030;-67
2022/12/05 16:26:11;;;;;;;;;;;;;;;3.07;100.00;95849.22;10521500;28;2989;-68
2022/12/05 16:31:18;;;;;;;;;;;;;;;3.11;100.00;95853.84;10527316;28;2955;-68
2022/12/05 16:36:22;;;;;;;;;;;;;;;3.14;100.00;95855.25;10521404;28;2880;-67
2022/12/05 16:41:29;;;;;;;;;;;;;;;3.17;100.00;95847.63;10511719;28;3411;-69
2022/12/05 16:46:32;;;;;;;;;;;;;;;3.19;100.00;95845.56;10506898;28;3033;-71
2022/12/05 16:51:37;;;;;;;;;;;;;;;3.19;100.00;95850.88;10508515;28;3084;-71
2022/12/05 16:56:40;;;;;;;;;;;;;;;3.16;100.00;95861.16;10512411;28;2989;-70
2022/12/05 17:01:43;;;;;;;;;;;;;;;3.20;100.00;95857.81;10510396;28;2977;-69
2022/12/05 17:06:46;;;;;;;;;;;;;;;3.20;100.00;95859.66;10498583;28;3026;-69
2022/12/05 17:11:50;;;;;;;;;;;;;;;3.21;100.00;95870.06;10515632;28;2708;-68
2022/12/05 17:16:53;;;;;;;;;;;;;;;3.23;100.00;95867.19;10512730;28;3249;-74
2022/12/05 17:21:56;;;;;;;;;;;;;;;3.18;100.00;95873.19;10493144;28;3070;-74
2022/12/05 17:26:59;;;;;;;;;;;;;;;3.19;100.00;95874.78;10510038;28;2606;-74
2022/12/05 17:32:03;;;;;;;;;;;;;;;3.16;100.00;95882.38;10520672;28;2978;-74
2022/12/05 17:37:06;;;;;;;;;;;;;;;3.03;100.00;95880.72;10500212;28;3185;-73
2022/12/05 17:42:09;;;;;;;;;;;;;;;3.02;100.00;95881.75;10521531;28;2990;-75
2022/12/05 17:47:13;;;;;;;;;;;;;;;2.99;100.00;95879.56;10522285;28;3040;-74
2022/12/05 17:52:16;;;;;;;;;;;;;;;2.94;100.00;95890.84;10510705;28;2970;-79
2022/12/05 17:57:24;;;;;;;;;;;;;;;2.83;100.00;95891.56;10516383;28;3336;-82
2022/12/05 18:02:27;;;;;;;;;;;3.80;99.90;;;2.86;100.00;95891.16;10509703;28;3057;-73
2022/12/05 18:07:30;;;;;;;;;;;3.80;99.90;;;2.87;100.00;95900.72;10486264;28;2978;-69
2022/12/05 18:12:32;;;;;;;;;;;3.80;99.90;;;2.90;100.00;95904.78;10506596;28;3174;-71
2022/12/05 18:17:35;;;;;;;;;;;3.80;99.90;;;2.91;100.00;95901.88;10503080;28;2582;-70
2022/12/05 18:22:38;;;;;;;;;;;3.90;99.90;;;2.98;100.00;95893.84;10508395;28;3141;-70
2022/12/05 18:27:41;;;;;;;;;;;3.90;99.90;;;2.87;100.00;95879.50;10507885;28;3090;-74
2022/12/05 18:32:44;;;;;;;;;;;3.80;99.90;;;2.69;100.00;95890.09;10496776;28;3148;-74
2022/12/05 18:37:47;;;;;;;;;;;3.80;99.90;;;2.51;100.00;95888.25;10516147;28;2975;-76
2022/12/05 18:42:49;;;;;;;;;;;3.60;99.90;;;2.56;100.00;95887.59;10500330;28;3017;-77
2022/12/05 18:47:52;;;;;;;;;;;3.50;99.90;;;2.48;100.00;95880.72;10506047;28;3046;-72
2022/12/05 18:53:11;;;;;;;;;;;3.50;99.90;;;2.43;100.00;95876.09;10502330;28;3121;-68
2022/12/05 18:58:14;;;;;;;;;;;3.40;99.90;;;2.50;100.00;95873.38;10518944;28;2653;-69
2022/12/05 19:03:17;;;;;;;;;;;;;;;2.47;100.00;95887.06;10514107;28;3057;-69
2022/12/05 19:08:21;;;;;;;;;;;;;;;2.40;100.00;95891.63;10499388;28;3033;-70
2022/12/05 19:13:29;;;;;;;;;;;;;;;2.40;100.00;95902.22;10492038;28;3101;-69
2022/12/05 19:18:32;;;;;;;;;;;;;;;2.38;100.00;95899.00;10502339;28;2986;-72
2022/12/05 19:23:36;;;;;;;;;;;;;;;2.35;100.00;95907.38;10504310;28;3034;-71
2022/12/05 19:28:40;;;;;;;;;;;;;;;2.20;100.00;95898.97;10505728;28;2948;-73
2022/12/05 19:33:44;;;;;;;;;;;;;;;2.20;100.00;95898.97;10504812;28;2997;-74
2022/12/05 19:38:49;;;;;;;;;;;;;;;2.18;100.00;95901.84;10514486;28;3095;-73
2022/12/05 19:43:52;;;;;;;;;;;;;;;2.14;100.00;95900.63;10516592;28;2987;-72
2022/12/05 19:49:06;;;;;;;;;;;;;;;2.19;100.00;95897.34;10525547;28;2602;-70
2022/12/05 19:54:09;;;;;;;;;;;;;;;2.21;100.00;95903.22;10515824;28;3132;-72
2022/12/05 19:59:15;;;;;;;;;;;;;;;2.20;100.00;95904.25;10504442;28;2974;-71
2022/12/05 20:04:20;;;;;;;;;;;;;;;2.11;100.00;95896.59;10516972;28;3010;-72
2022/12/05 20:09:24;;;;;;;;;;;;;;;2.08;100.00;95891.72;10511482;28;3041;-71
2022/12/05 20:14:29;;;;;;;;;;;;;;;2.14;100.00;95885.53;10531793;27;3142;-71
2022/12/05 20:19:33;;;;;;;;;;;;;;;2.17;100.00;95884.31;10511334;28;3094;-70
2022/12/05 20:24:37;;;;;;;;;;;;;;;2.19;100.00;95879.59;10517611;28;2915;-78
2022/12/05 20:29:41;;;;;;;;;;;;;;;2.04;100.00;95882.59;10515551;28;3023;-70
2022/12/05 20:34:44;;;;;;;;;;;;;;;1.96;100.00;95879.38;10518407;28;3053;-69
2022/12/05 20:39:48;;;;;;;;;;;;;;;1.94;100.00;95874.28;10521175;28;3037;-72
2022/12/05 20:44:51;;;;;;;;;;;;;;;1.90;100.00;95873.09;10536179;27;3014;-69
2022/12/05 20:49:54;;;;;;;;;;;;;;;1.86;100.00;95863.97;10517997;28;3042;-70
2022/12/05 20:54:59;;;;;;;;;;;;;;;1.86;100.00;95871.94;10530904;28;3030;-69
2022/12/05 21:00:03;;;;;;;;;;;;;;;1.85;100.00;95851.75;10529600;28;3052;-70
2022/12/05 21:05:06;;;;;;;;;;;;;;;1.83;100.00;95857.25;10537367;28;2973;-70
2022/12/05 21:10:09;;;;;;;;;;;;;;;1.72;100.00;95860.63;10514003;28;3118;-69
2022/12/05 21:15:13;;;;;;;;;;;;;;;1.73;100.00;95861.44;10489053;28;3106;-72
2022/12/05 21:20:16;;;;;;;;;;;;;;;1.81;100.00;95869.91;10497988;28;3062;-71
2022/12/05 21:25:19;;;;;;;;;;;;;;;1.74;100.00;95863.06;10508803;28;3031;-69
2022/12/05 21:30:23;;;;;;;;;;;;;;;1.74;100.00;95871.00;10528284;28;3188;-71
2022/12/05 21:35:26;;;;;;;;;;;;;;;1.71;100.00;95884.66;10519928;28;3009;-70
2022/12/05 21:40:29;;;;;;;;;;;;;;;1.71;100.00;95874.06;10520153;28;2969;-70
2022/12/05 21:45:34;;;;;;;;;;;;;;;1.70;100.00;95869.78;10497285;28;3126;-69
2022/12/05 21:50:47;;;;;;;;;;;;;;;1.63;100.00;95875.97;10526175;28;3123;-70
2022/12/05 21:55:51;;;;;;;;;;;;;;;1.65;100.00;95880.22;10530295;28;3044;-71
2022/12/05 22:00:54;;;;;;;;;;;;;;;1.69;100.00;95887.53;10521585;28;3030;-70
2022/12/05 22:05:57;;;;;;;;;;;;;;;1.66;100.00;95895.13;10538428;28;3010;-67
2022/12/05 22:11:00;;;;;;;;;;;;;;;1.67;100.00;95892.25;10541364;28;3142;-69
2022/12/05 22:16:04;;;;;;;;;;;;;;;1.61;100.00;95882.50;10521253;28;3046;-69
2022/12/05 22:21:08;;;;;;;;;;;;;;;1.65;100.00;95882.88;10518181;28;3022;-69
2022/12/05 22:26:11;;;;;;;;;;;;;;;1.68;100.00;95888.56;10523979;28;3057;-70
2022/12/05 22:31:14;;;;;;;;;;;;;;;1.74;100.00;95881.59;10522638;28;3076;-68
2022/12/05 22:36:18;;;;;;;;;;;;;;;1.80;100.00;95878.09;10541384;28;2584;-69
2022/12/05 22:41:22;;;;;;;;;;;;;;;1.80;100.00;95883.38;10518851;28;2974;-69
2022/12/05 22:46:25;;;;;;;;;;;;;;;1.81;100.00;95879.72;10529308;28;3006;-70
2022/12/05 22:51:28;;;;;;;;;;;;;;;1.87;100.00;95879.66;10528417;28;2982;-69
2022/12/05 22:56:32;;;;;;;;;;;;;;;2.01;100.00;95883.00;10522046;28;3003;-68
2022/12/05 23:01:35;;;;;;;;;;;;;;;2.02;100.00;95886.47;10517660;28;3240;-70
2022/12/05 23:06:38;;;;;;;;;;;;;;;2.02;100.00;95881.97;10532671;28;3064;-70
2022/12/05 23:11:42;;;;;;;;;;;;;;;2.10;100.00;95873.75;10529153;28;3063;-73
2022/12/05 23:16:55;;;;;;;;;;;;;;;2.13;100.00;95860.06;10534908;28;3006;-74
2022/12/05 23:21:58;;;;;;;;;;;;;;;2.17;100.00;95858.59;10536803;28;3077;-73
2022/12/05 23:27:01;;;;;;;;;;;;;;;2.20;100.00;95857.34;10543104;28;3099;-73
2022/12/05 23:32:05;;;;;;;;;;;;;;;2.14;100.00;95859.03;10535715;28;3087;-71
2022/12/05 23:37:08;;;;;;;;;;;;;;;2.08;100.00;95861.72;10551027;28;3080;-69
2022/12/05 23:42:11;;;;;;;;;;;;;;;2.05;100.00;95860.34;10538925;28;3005;-69
2022/12/05 23:47:17;;;;;;;;;;;;;;;2.11;100.00;95856.00;10533438;28;3035;-69
2022/12/05 23:52:21;;;;;;;;;;;;;;;2.19;100.00;95854.91;10539249;28;2994;-69
2022/12/05 23:57:24;;;;;;;;;;;;;;;2.16;100.00;95851.69;10539287;28;2990;-72
